Mercer, WI

12:46 PM CST on February 11, 2016 (GMT -0600)
Pine Lake | | Change Station
CLOSE
Current Station
Personal Weather Station
Location: Hurley, WI
Elevation: 1604 ft
Nearby Weather Stations

Elev 1604 ft 46.25 °N, 90.13 °W | Updated 10 seconds ago

Partly Cloudy
Partly Cloudy
17.1 °F
Feels Like 9 °F
N
5.8
Wind Variable Wind from NW
Gusts 5.8 mph

Today
High -- | Low -- °F
--% Chance of Precip.
Yesterday
High -- | Low -- °F
Precip. -- in
Pressure 30.15 in
Visibility 10.0 miles
Clouds Scattered Clouds 7500 ft
Windchill 9 °F
Dew Point -8 °F
Humidity 31%
Rainfall in
Snow Depth Not available.
7:10 AM 5:19 PM
Waxing Crescent, 13% visible
METAR KD25 111835Z AUTO 28008KT 10SM SCT075 M12/M19 A3015 RMK AO2 T11251190
Pressure 30.15 in
Visibility 10.0 miles
Clouds Scattered Clouds 7500 ft
Windchill 9 °F
Dew Point -8 °F
Humidity 31%
Rainfall in
Snow Depth Not available.
7:10 AM 5:19 PM
Waxing Crescent, 13% visible
METAR KD25 111835Z AUTO 28008KT 10SM SCT075 M12/M19 A3015 RMK AO2 T11251190

10-Day Weather Forecast

Almanac

Astronomy

Feb. 11, 2016 Rise Set
Actual Time
Civil Twilight
Nautical Twilight
Astronomical Twilight
Moon
Length of Visible Light
Length of Day
Tomorrow will be .
, % of the Moon is Illuminated

Today's Extremes

State Highs State Lows

Community

WunderPhotos

Upload Photos

1,892,125 photos uploaded!

WunderBlog® & News

Nearby

Air Quality

  Air Quality AQ Index Pollutant
Not available.

Snow Depth

Station Depth Elevation

Earthquake Activity

City Distance Mag. Time & Date
Minimum magnitude displayed is 2.5.

Coastal Water Temperatures

Place Temperature

Stations

Nearby Weather Stations

Station Location Temp. Windchill Dew Point Humidity Wind Precip. Elev Updated Type
                   

Watches & Warnings

There are currently no watches in effect.